Milton, North Dakota
Current Conditions -  °F | °C
As of 6:55 AM on Saturday 01 Nov 2014 (Local Time) from KD55 Reporting Station
Clear Clear  
Wind Chill: 17°   Ceiling: Unl
Heat Index: 30°   Visibility: 10mi
Dew Point: 18°   Wind: 22mph
Humidity: 60%   Direction: 180°S
Pressure: 30.03"   Gusts: 30mph
Location:  48.63°N, 98.04°W
Report Text: KD55 011155Z AUTO 18019G26KT 10SM CLR M01/M08 A3003 RMK AO2
Loading
Personal Weather Stations






























Interactive Weather Map
Tropical Storm Tracking
New forecast layout! Learn more

10-Day Weather Forecast

Advertisements
Track Severe Weather on mobile